This is the latest recevied weather packets stored in our database for station/object N3WPH. If no packets are shown the sender has not sent any weather packets the latest 10 day(s).
| Time | Temp. | Humidity | Pressure | Rain* | Wind** | Luminosity | Snow |
|---|---|---|---|---|---|---|---|
| 1777658450 | 16.67° C | 43% | 1010.6 hPa | 0 mm | - | 796 W/m² | - |
| 1777658148 | 15.56° C | 45% | 1011.1 hPa | 0 mm | - | 816 W/m² | - |
| 1777657844 | 16.11° C | 45% | 1011 hPa | 0 mm | - | 846 W/m² | - |
| 1777657541 | 16.11° C | 48% | 1011.2 hPa | 0 mm | - | 819 W/m² | - |
| 1777657239 | 15° C | 50% | 1011.2 hPa | 0 mm | - | 833 W/m² | - |
| 1777656936 | 15° C | 51% | 1011.2 hPa | 0 mm | - | 801 W/m² | - |
| 1777656633 | 14.44° C | 51% | 1011.2 hPa | 0 mm | - | 802 W/m² | - |
| 1777656328 | 15° C | 46% | 1011.2 hPa | 0 mm | - | 788 W/m² | - |
| 1777656024 | 14.44° C | 45% | 1011.1 hPa | 0 mm | - | 787 W/m² | - |
| 1777655720 | 14.44° C | 47% | 1011.3 hPa | 0 mm | - | 787 W/m² | - |
| 1777655417 | 14.44° C | 46% | 1011.2 hPa | 0 mm | - | 790 W/m² | - |
| 1777655114 | 14.44° C | 53% | 1011.6 hPa | 0 mm | - | 788 W/m² | - |
| 1777654811 | 13.33° C | 52% | 1011.6 hPa | 0 mm | - | 788 W/m² | - |
| 1777654509 | 14.44° C | 46% | 1011.6 hPa | 0 mm | - | 788 W/m² | - |
| 1777654206 | 14.44° C | 50% | 1011.9 hPa | 0 mm | - | 787 W/m² | - |
| 1777653904 | 13.33° C | 55% | 1011.9 hPa | 0 mm | - | 787 W/m² | - |
| 1777653600 | 12.78° C | 52% | 1011.8 hPa | 0 mm | - | 779 W/m² | - |
| 1777653297 | 13.33° C | 52% | 1011.8 hPa | 0 mm | - | 783 W/m² | - |
| 1777652993 | 13.89° C | 58% | 1012.2 hPa | 0 mm | - | 777 W/m² | - |
| 1777652690 | 13.33° C | 54% | 1012.3 hPa | 0 mm | - | 787 W/m² | - |
| 1777652387 | 12.78° C | 57% | 1012.8 hPa | 0 mm | - | 878 W/m² | - |
| 1777652084 | 13.89° C | 52% | 1012.4 hPa | 0 mm | - | 209 W/m² | - |
| 1777651781 | 12.78° C | 56% | 1012.7 hPa | 0 mm | - | 829 W/m² | - |
| 1777651477 | 12.22° C | 58% | 1012.7 hPa | 0 mm | - | 766 W/m² | - |
| 1777651175 | 13.33° C | 55% | 1012.6 hPa | 0 mm | - | 132 W/m² | - |
* Rain latest hour (hover to see other rain measurements)
** Current wind speed in m/s (hover to see current wind gust speed)